createdAt,value
2018-06-22T00:01:44.855Z,15.90
2018-06-22T00:04:14.340Z,15.70
2018-06-22T00:06:43.903Z,15.40
2018-06-22T00:09:14.884Z,15.20
2018-06-22T00:11:44.039Z,15.20
2018-06-22T00:14:13.281Z,15.30
2018-06-22T00:19:12.531Z,15.00
2018-06-22T00:21:41.448Z,14.80
2018-06-22T00:24:10.595Z,14.80
2018-06-22T00:26:39.496Z,14.70
2018-06-22T00:29:09.804Z,14.60
2018-06-22T00:31:38.896Z,14.60
2018-06-22T00:34:09.541Z,14.60
2018-06-22T00:36:38.534Z,14.80
2018-06-22T00:39:08.614Z,14.60
2018-06-22T00:41:37.604Z,14.40
2018-06-22T00:44:07.852Z,14.40
2018-06-22T00:46:38.399Z,14.30
2018-06-22T00:49:08.860Z,14.50
2018-06-22T00:51:37.763Z,14.30
2018-06-22T00:54:15.330Z,14.50
2018-06-22T00:56:44.287Z,14.40
2018-06-22T00:59:14.831Z,14.10
2018-06-22T01:01:43.739Z,14.30
2018-06-22T01:04:13.023Z,14.10
2018-06-22T01:06:42.263Z,14.10
2018-06-22T01:09:12.876Z,14.20
2018-06-22T01:11:43.314Z,14.10
2018-06-22T01:14:14.307Z,13.90
2018-06-22T01:16:44.657Z,13.90
2018-06-22T01:21:42.242Z,14.20
2018-06-22T01:24:11.212Z,14.20
2018-06-22T01:26:41.426Z,14.00
2018-06-22T01:29:16.265Z,13.80
2018-06-22T01:31:45.238Z,13.70
2018-06-22T01:34:15.483Z,13.80
2018-06-22T01:36:44.395Z,13.70
2018-06-22T01:39:13.521Z,13.60
2018-06-22T01:41:42.436Z,13.40
2018-06-22T01:44:12.998Z,13.40
2018-06-22T01:46:41.902Z,13.50
2018-06-22T01:49:12.220Z,13.50
2018-06-22T01:51:41.114Z,13.50
2018-06-22T01:54:10.055Z,13.60
2018-06-22T01:56:39.413Z,13.60
2018-06-22T02:01:38.147Z,13.70
2018-06-22T02:04:07.369Z,13.60
2018-06-22T02:06:36.267Z,13.50
2018-06-22T02:09:09.726Z,13.50
2018-06-22T02:11:40.023Z,13.40
2018-06-22T02:14:09.023Z,13.30
2018-06-22T02:19:08.101Z,13.10
2018-06-22T02:21:37.124Z,12.90
2018-06-22T02:24:07.668Z,12.90
2018-06-22T02:26:36.597Z,13.00
2018-06-22T02:29:05.676Z,13.20
2018-06-22T02:31:34.943Z,13.20
2018-06-22T02:34:05.443Z,13.10
2018-06-22T02:36:34.374Z,13.00
2018-06-22T02:39:03.576Z,12.90
2018-06-22T02:41:32.476Z,12.90
2018-06-22T02:44:02.955Z,12.90
2018-06-22T02:46:31.866Z,12.90
2018-06-22T02:49:02.317Z,12.70
2018-06-22T02:51:31.231Z,12.70
2018-06-22T02:54:00.439Z,13.00
2018-06-22T02:56:29.360Z,12.70
2018-06-22T02:58:59.386Z,12.80
2018-06-22T03:01:28.313Z,12.70
2018-06-22T03:03:58.018Z,12.50
2018-06-22T03:06:26.915Z,12.40
2018-06-22T03:08:57.431Z,12.20
2018-06-22T03:11:27.971Z,12.10
2018-06-22T03:13:57.144Z,12.00
2018-06-22T03:16:27.647Z,11.90
2018-06-22T03:18:56.648Z,11.90
2018-06-22T03:21:30.647Z,11.90
2018-06-22T03:23:59.727Z,11.70
2018-06-22T03:26:28.639Z,11.70
2018-06-22T03:28:57.779Z,11.70
2018-06-22T03:31:26.714Z,11.70
2018-06-22T03:33:57.242Z,11.70
2018-06-22T03:36:26.249Z,11.70
2018-06-22T03:38:55.593Z,11.70
2018-06-22T03:41:24.696Z,11.70
2018-06-22T03:43:54.821Z,11.80
2018-06-22T03:46:23.848Z,11.60
2018-06-22T03:48:54.247Z,11.70
2018-06-22T03:51:23.276Z,11.60
2018-06-22T03:53:52.217Z,11.60
2018-06-22T03:56:21.317Z,11.60
2018-06-22T03:58:51.647Z,11.50
2018-06-22T04:01:20.960Z,11.60
2018-06-22T04:03:49.884Z,11.60
2018-06-22T04:06:20.331Z,11.60
2018-06-22T04:08:49.256Z,11.70
2018-06-22T04:11:19.764Z,11.60
2018-06-22T04:13:48.689Z,11.50
2018-06-22T04:16:19.125Z,11.50
2018-06-22T04:18:48.079Z,11.60
2018-06-22T04:21:18.334Z,11.70
2018-06-22T04:23:47.261Z,11.70
2018-06-22T04:26:16.275Z,11.70
2018-06-22T04:28:45.184Z,11.70
2018-06-22T04:31:14.225Z,11.60
2018-06-22T04:33:44.559Z,11.50
2018-06-22T04:36:13.566Z,11.60
2018-06-22T04:38:42.514Z,11.50
2018-06-22T04:41:11.589Z,11.50
2018-06-22T04:43:41.716Z,11.50
2018-06-22T04:46:10.952Z,11.50
2018-06-22T04:51:10.085Z,11.50
2018-06-22T04:53:39.092Z,11.50
2018-06-22T04:56:08.108Z,11.50
2018-06-22T04:58:38.277Z,11.50
2018-06-22T05:01:07.469Z,11.50
2018-06-22T05:03:37.729Z,11.40
2018-06-22T05:06:07.196Z,11.30
2018-06-22T05:08:36.108Z,11.30
2018-06-22T05:11:06.592Z,11.20
2018-06-22T05:13:35.511Z,11.20
2018-06-22T05:16:06.000Z,11.10
2018-06-22T05:18:36.572Z,11.10
2018-06-22T05:21:06.203Z,11.20
2018-06-22T05:23:35.119Z,11.20
2018-06-22T05:26:04.615Z,11.30
2018-06-22T05:28:33.907Z,11.50
2018-06-22T05:31:02.996Z,11.60
2018-06-22T05:33:33.176Z,11.50
2018-06-22T05:36:02.393Z,11.60
2018-06-22T05:41:00.274Z,11.60
2018-06-22T05:43:30.397Z,11.60
2018-06-22T05:45:59.497Z,11.70
2018-06-22T05:48:30.022Z,11.80
2018-06-22T05:50:59.891Z,12.00
2018-06-22T05:53:28.743Z,12.10
2018-06-22T05:55:57.650Z,12.20
2018-06-22T05:58:27.842Z,12.40
2018-06-22T06:01:06.208Z,12.50
2018-06-22T06:03:35.403Z,12.60
2018-06-22T06:06:04.425Z,12.80
2018-06-22T06:08:33.310Z,12.90
2018-06-22T06:11:03.884Z,12.50
2018-06-22T06:16:02.896Z,12.40
2018-06-22T06:21:00.550Z,12.40
2018-06-22T06:23:29.997Z,12.40
2018-06-22T06:25:59.279Z,12.50
2018-06-22T06:28:28.400Z,12.60
2018-06-22T06:30:58.315Z,12.70
2018-06-22T06:33:29.035Z,12.80
2018-06-22T06:35:57.951Z,13.00
2018-06-22T06:38:26.876Z,12.80
2018-06-22T06:40:56.070Z,12.70
2018-06-22T06:43:26.304Z,12.80
2018-06-22T06:45:55.524Z,12.70
2018-06-22T06:48:26.161Z,12.70
2018-06-22T06:50:55.067Z,12.70
2018-06-22T06:55:52.623Z,13.00
2018-06-22T06:58:23.055Z,13.00
2018-06-22T07:03:24.803Z,13.00
2018-06-22T07:05:53.768Z,13.20
2018-06-22T07:08:22.971Z,13.30
2018-06-22T07:10:53.395Z,13.30
2018-06-22T07:13:23.646Z,13.40
2018-06-22T07:15:53.992Z,13.50
2018-06-22T07:18:23.013Z,13.70
2018-06-22T07:20:51.911Z,13.80
2018-06-22T07:23:20.948Z,14.10
2018-06-22T07:25:49.803Z,14.40
2018-06-22T07:28:18.816Z,14.50
2018-06-22T07:30:48.132Z,14.50
2018-06-22T07:33:18.508Z,14.40
2018-06-22T07:35:47.430Z,14.30
2018-06-22T07:38:16.468Z,14.50
2018-06-22T07:40:45.384Z,14.90
2018-06-22T07:43:15.612Z,14.60
2018-06-22T07:45:44.560Z,14.60
2018-06-22T07:48:15.235Z,14.40
2018-06-22T07:50:44.163Z,14.20
2018-06-22T07:53:13.439Z,14.20
2018-06-22T07:55:43.935Z,14.20
2018-06-22T07:58:14.888Z,13.90
2018-06-22T08:00:43.824Z,13.50
2018-06-22T08:03:13.196Z,13.40
2018-06-22T08:05:42.156Z,13.60
2018-06-22T08:08:11.575Z,13.90
2018-06-22T08:10:41.928Z,14.30
2018-06-22T08:13:10.875Z,14.30
2018-06-22T08:18:10.400Z,14.80
2018-06-22T08:20:39.335Z,15.20
2018-06-22T08:23:08.335Z,14.70
2018-06-22T08:28:05.960Z,14.80
2018-06-22T08:30:34.871Z,14.60
2018-06-22T08:33:05.608Z,14.60
2018-06-22T08:35:34.631Z,14.60
2018-06-22T08:38:03.683Z,14.30
2018-06-22T08:40:33.631Z,14.40
2018-06-22T08:43:03.846Z,14.40
2018-06-22T08:45:32.766Z,14.40
2018-06-22T08:48:03.479Z,14.40
2018-06-22T08:50:32.388Z,14.40
2018-06-22T08:53:03.108Z,14.40
2018-06-22T08:58:02.116Z,14.40
2018-06-22T09:02:59.931Z,14.40
2018-06-22T09:05:28.875Z,14.30
2018-06-22T09:07:59.520Z,14.20
2018-06-22T09:10:35.627Z,14.10
2018-06-22T09:13:05.159Z,14.00
2018-06-22T09:15:35.614Z,14.10
2018-06-22T09:18:04.842Z,14.00
2018-06-22T09:20:33.752Z,13.90
2018-06-22T09:23:02.683Z,13.90
2018-06-22T09:25:31.715Z,13.90
2018-06-22T09:28:00.733Z,13.80
2018-06-22T09:30:29.655Z,13.90
2018-06-22T09:33:00.332Z,13.70
2018-06-22T09:35:29.280Z,13.80
2018-06-22T09:42:57.283Z,13.70
2018-06-22T09:45:27.099Z,13.80
2018-06-22T09:47:57.574Z,13.50
2018-06-22T09:50:27.984Z,13.40
2018-06-22T09:52:56.971Z,13.40
2018-06-22T09:55:25.871Z,13.30
2018-06-22T09:57:56.520Z,13.30
2018-06-22T10:00:25.473Z,13.10
2018-06-22T10:02:54.382Z,12.80
2018-06-22T10:05:24.627Z,12.60
2018-06-22T10:07:53.664Z,12.60
2018-06-22T10:10:22.596Z,12.50
2018-06-22T10:12:52.883Z,12.50
2018-06-22T10:15:23.662Z,12.50
2018-06-22T10:17:52.584Z,12.60
2018-06-22T10:20:21.655Z,12.70
2018-06-22T10:22:50.992Z,12.70
2018-06-22T10:25:19.953Z,12.70
2018-06-22T10:27:49.326Z,12.70
2018-06-22T10:30:18.356Z,12.80
2018-06-22T10:32:49.075Z,12.80
2018-06-22T10:37:46.914Z,13.00
2018-06-22T10:40:15.827Z,13.10
2018-06-22T10:42:46.052Z,13.00
2018-06-22T10:45:15.283Z,13.00
2018-06-22T10:47:56.364Z,13.10
2018-06-22T10:50:25.270Z,13.00
2018-06-22T10:52:54.206Z,13.00
2018-06-22T10:55:23.648Z,13.10
2018-06-22T10:57:54.191Z,13.30
2018-06-22T11:02:53.407Z,13.60
2018-06-22T11:05:22.495Z,13.50
2018-06-22T11:07:51.439Z,13.60
2018-06-22T11:10:20.468Z,13.70
2018-06-22T11:12:51.311Z,13.80
2018-06-22T11:15:22.960Z,13.90
2018-06-22T11:17:51.892Z,13.80
2018-06-22T11:20:20.804Z,13.80
2018-06-22T11:22:49.879Z,13.80
2018-06-22T11:25:19.043Z,13.80
2018-06-22T11:27:47.948Z,13.70
2018-06-22T11:30:17.209Z,13.70
2018-06-22T11:35:16.408Z,13.90
2018-06-22T11:37:45.363Z,14.00
2018-06-22T11:40:14.396Z,14.00
2018-06-22T11:42:45.092Z,14.00
2018-06-22T11:47:58.691Z,14.20
2018-06-22T11:50:27.807Z,14.40
2018-06-22T11:52:56.731Z,14.50
2018-06-22T11:57:56.264Z,14.50
2018-06-22T12:00:26.887Z,14.40
2018-06-22T12:02:56.360Z,14.50
2018-06-22T12:05:25.325Z,14.60
2018-06-22T12:07:54.576Z,14.70
2018-06-22T12:10:23.833Z,14.80
2018-06-22T12:12:54.307Z,14.80
2018-06-22T12:17:53.667Z,15.20
2018-06-22T12:20:23.039Z,15.10
2018-06-22T12:26:51.957Z,15.10
2018-06-22T12:29:20.988Z,14.60
2018-06-22T12:31:59.904Z,14.80
2018-06-22T12:34:28.819Z,14.90
2018-06-22T12:36:57.844Z,15.00
2018-06-22T12:39:27.335Z,14.80
2018-06-22T12:41:56.647Z,14.80
2018-06-22T12:44:26.891Z,14.60
2018-06-22T12:46:56.016Z,14.30
2018-06-22T12:49:26.323Z,14.30
2018-06-22T12:54:25.229Z,14.90
2018-06-22T12:59:25.333Z,15.40
2018-06-22T13:01:54.199Z,15.50
2018-06-22T13:04:23.131Z,15.60
2018-06-22T13:06:52.452Z,15.30
2018-06-22T13:09:21.373Z,15.20
2018-06-22T13:11:51.837Z,15.30
2018-06-22T13:14:20.712Z,15.20
2018-06-22T13:16:51.120Z,15.30
2018-06-22T13:19:20.055Z,15.50
2018-06-22T13:21:52.667Z,15.20
2018-06-22T13:24:23.527Z,15.10
2018-06-22T13:26:52.483Z,14.90
2018-06-22T13:29:22.000Z,15.10
2018-06-22T13:31:59.856Z,15.00
2018-06-22T13:34:29.131Z,15.10
2018-06-22T13:36:58.244Z,15.40
2018-06-22T13:39:27.427Z,15.60
2018-06-22T13:44:26.727Z,15.90
2018-06-22T13:49:26.481Z,16.10
2018-06-22T13:51:55.509Z,16.20
2018-06-22T13:54:24.459Z,16.40
2018-06-22T13:56:55.258Z,16.40
2018-06-22T14:01:54.488Z,16.00
2018-06-22T14:04:28.777Z,15.90
2018-06-22T14:06:57.880Z,16.20
2018-06-22T14:09:26.816Z,16.10
2018-06-22T14:11:57.531Z,16.00
2018-06-22T14:19:25.657Z,14.60
2018-06-22T14:21:56.606Z,14.40
2018-06-22T14:24:25.525Z,14.60
2018-06-22T14:26:54.776Z,14.70
2018-06-22T14:31:59.832Z,15.10
2018-06-22T14:34:28.743Z,15.30
2018-06-22T14:36:57.873Z,15.30
2018-06-22T14:39:28.758Z,15.50
2018-06-22T14:41:57.812Z,15.70
2018-06-22T14:57:09.843Z,15.80
2018-06-22T14:59:45.283Z,15.30
2018-06-22T15:02:19.874Z,15.40
2018-06-22T15:04:54.202Z,14.80
2018-06-22T15:07:56.724Z,14.40
2018-06-22T15:10:33.892Z,14.20
2018-06-22T15:13:03.699Z,14.10
2018-06-22T15:15:34.540Z,14.00
2018-06-22T15:18:03.527Z,14.00
2018-06-22T15:20:40.944Z,14.20
2018-06-22T15:23:10.505Z,14.20
2018-06-22T15:25:39.544Z,14.30
2018-06-22T15:28:08.596Z,14.40
2018-06-22T15:30:37.621Z,14.80
2018-06-22T15:33:12.463Z,15.00
2018-06-22T15:35:48.714Z,15.00
2018-06-22T15:38:23.028Z,15.10
2018-06-22T15:40:57.493Z,15.00
2018-06-22T15:43:31.632Z,15.00
2018-06-22T15:48:48.607Z,14.90
2018-06-22T15:51:24.440Z,15.00
2018-06-22T15:53:59.095Z,15.00
2018-06-22T15:56:28.107Z,15.10
2018-06-22T15:58:58.707Z,15.20
2018-06-22T16:01:27.623Z,15.10
2018-06-22T16:03:58.789Z,15.20
2018-06-22T16:06:28.807Z,15.30
2018-06-22T16:08:57.741Z,15.30
2018-06-22T16:11:29.421Z,15.40
2018-06-22T16:14:03.835Z,15.40
2018-06-22T16:16:39.707Z,15.40
2018-06-22T16:19:14.090Z,15.60
2018-06-22T16:24:25.166Z,15.80
2018-06-22T16:26:59.600Z,15.80
2018-06-22T16:29:28.624Z,15.60
2018-06-22T16:32:06.756Z,15.70
2018-06-22T16:37:04.657Z,15.90
2018-06-22T16:39:33.722Z,15.90
2018-06-22T16:44:32.489Z,16.10
2018-06-22T16:47:01.405Z,16.00
2018-06-22T16:49:31.939Z,16.00
2018-06-22T16:52:00.861Z,16.00
2018-06-22T16:54:29.880Z,16.00
2018-06-22T16:56:59.120Z,16.20
2018-06-22T16:59:29.635Z,16.10
2018-06-22T17:01:58.555Z,15.90
2018-06-22T17:04:27.513Z,15.90
2018-06-22T17:07:03.035Z,15.90
2018-06-22T17:09:37.791Z,15.90
2018-06-22T17:12:14.091Z,15.90
2018-06-22T17:17:24.127Z,15.70
2018-06-22T17:19:53.181Z,15.70
2018-06-22T17:22:24.120Z,15.70
2018-06-22T17:24:53.312Z,15.60
2018-06-22T17:27:22.339Z,15.70
2018-06-22T17:29:52.988Z,15.60
2018-06-22T17:32:23.667Z,15.60
2018-06-22T17:34:53.319Z,15.50
2018-06-22T17:37:22.239Z,15.60
2018-06-22T17:39:51.291Z,15.60
2018-06-22T17:42:20.218Z,15.70
2018-06-22T17:44:49.236Z,15.70
2018-06-22T17:47:20.159Z,15.70
2018-06-22T17:49:50.505Z,15.70
2018-06-22T17:54:48.357Z,15.80
2018-06-22T17:57:17.425Z,15.80
2018-06-22T17:59:53.152Z,15.80
2018-06-22T19:38:28.863Z,15.10
2018-06-22T19:41:00.835Z,15.00
2018-06-22T19:43:35.202Z,15.00
2018-06-22T19:46:10.467Z,15.00
2018-06-22T19:48:46.332Z,15.00
2018-06-22T19:51:21.895Z,14.90
2018-06-22T19:54:01.245Z,14.90
2018-06-22T19:56:30.394Z,14.80
2018-06-22T19:59:02.141Z,14.80
2018-06-22T20:01:32.823Z,14.80
2018-06-22T20:04:01.732Z,14.70
2018-06-22T20:06:30.926Z,14.70
2018-06-22T20:08:59.858Z,14.70
2018-06-22T20:11:33.427Z,14.60
2018-06-22T20:14:02.372Z,14.60
2018-06-22T20:16:33.225Z,14.50
2018-06-22T20:19:02.280Z,14.50
2018-06-22T20:21:31.192Z,14.50
2018-06-22T20:24:00.423Z,14.60
2018-06-22T20:26:29.436Z,14.50
2018-06-22T20:28:59.953Z,14.60
2018-06-22T20:34:10.113Z,14.60
2018-06-22T20:36:44.576Z,14.60
2018-06-22T20:39:20.436Z,14.70
2018-06-22T20:41:54.979Z,14.60
2018-06-22T20:44:29.179Z,14.60
2018-06-22T20:47:03.576Z,14.60
2018-06-22T20:52:08.129Z,14.60
2018-06-22T20:54:37.040Z,14.50
2018-06-22T20:57:06.086Z,14.60
2018-06-22T20:59:36.519Z,14.60
2018-06-22T21:02:07.124Z,14.50
2018-06-22T21:04:36.032Z,14.50
2018-06-22T21:07:05.755Z,14.50
2018-06-22T21:09:34.720Z,14.50
2018-06-22T21:12:05.184Z,14.50
2018-06-22T21:14:34.501Z,14.50
2018-06-22T21:17:04.975Z,14.50
2018-06-22T21:19:33.915Z,14.40
2018-06-22T21:22:09.864Z,14.40
2018-06-22T21:24:39.903Z,14.30
2018-06-22T21:27:15.919Z,14.30
2018-06-22T21:29:50.404Z,14.20
2018-06-22T21:32:26.966Z,14.20
2018-06-22T21:35:01.402Z,14.20
2018-06-22T21:37:37.274Z,14.20
2018-06-22T21:40:06.288Z,14.10
2018-06-22T21:42:35.438Z,14.10
2018-06-22T21:45:04.360Z,14.10
2018-06-22T21:47:34.925Z,14.10
2018-06-22T21:50:05.455Z,14.10
2018-06-22T21:52:37.785Z,14.10
2018-06-22T21:55:06.700Z,14.10
2018-06-22T21:57:35.781Z,14.20
2018-06-22T22:00:08.320Z,14.20
2018-06-22T22:02:38.809Z,14.10
2018-06-22T22:05:08.260Z,14.20
2018-06-22T22:07:37.191Z,14.10
2018-06-22T22:10:06.710Z,14.10
2018-06-22T22:12:37.539Z,14.20
2018-06-22T22:15:06.465Z,14.20
2018-06-22T22:17:37.610Z,14.10
2018-06-22T22:22:35.076Z,14.10
2018-06-22T22:27:34.387Z,14.20
2018-06-22T22:30:03.408Z,14.30
2018-06-22T22:32:33.911Z,14.30
2018-06-22T22:35:04.347Z,14.30
2018-06-22T22:37:33.276Z,14.20
2018-06-22T22:40:02.351Z,14.30
2018-06-22T22:42:31.267Z,14.20
2018-06-22T22:45:00.411Z,14.20
2018-06-22T22:47:30.964Z,14.20
2018-06-22T22:50:01.707Z,14.20
2018-06-22T22:54:59.252Z,14.20
2018-06-22T22:57:28.376Z,14.20
2018-06-22T22:59:58.657Z,14.10
2018-06-22T23:02:27.555Z,14.10
2018-06-22T23:04:57.769Z,14.10
2018-06-22T23:07:26.660Z,14.00
2018-06-22T23:09:55.685Z,14.00
2018-06-22T23:12:26.200Z,13.90
2018-06-22T23:14:55.487Z,13.90
2018-06-22T23:17:26.164Z,14.00
2018-06-22T23:19:55.214Z,13.90
2018-06-22T23:22:35.583Z,13.90
2018-06-22T23:25:05.329Z,13.80
2018-06-22T23:27:35.636Z,13.90
2018-06-22T23:30:04.998Z,13.80
2018-06-22T23:32:35.696Z,13.70
2018-06-22T23:37:33.599Z,13.70
2018-06-22T23:40:03.080Z,13.70
2018-06-22T23:42:32.011Z,13.60
2018-06-22T23:45:01.384Z,13.60
2018-06-22T23:47:31.680Z,13.60
2018-06-22T23:50:03.900Z,13.50
2018-06-22T23:52:32.795Z,13.60
2018-06-22T23:55:02.075Z,13.50
2018-06-22T23:57:30.985Z,13.60
